sensor_id;sensor_type;location;lat;lon;timestamp;temperature;humidity
67901;DHT22;54700;51.796;10.956;2023-05-14T00:01:49;10.90;97.80
67901;DHT22;54700;51.796;10.956;2023-05-14T00:04:19;10.90;98.00
67901;DHT22;54700;51.796;10.956;2023-05-14T00:06:46;10.90;98.60
67901;DHT22;54700;51.796;10.956;2023-05-14T00:09:19;10.90;98.70
67901;DHT22;54700;51.796;10.956;2023-05-14T00:11:49;10.80;99.40
67901;DHT22;54700;51.796;10.956;2023-05-14T00:14:25;10.80;99.30
67901;DHT22;54700;51.796;10.956;2023-05-14T00:17:03;10.80;99.80
67901;DHT22;54700;51.796;10.956;2023-05-14T00:19:34;10.80;99.20
67901;DHT22;54700;51.796;10.956;2023-05-14T00:22:02;10.80;98.90
67901;DHT22;54700;51.796;10.956;2023-05-14T00:24:29;10.90;99.00
67901;DHT22;54700;51.796;10.956;2023-05-14T00:27:00;10.80;99.10
67901;DHT22;54700;51.796;10.956;2023-05-14T00:29:30;10.80;99.50
67901;DHT22;54700;51.796;10.956;2023-05-14T00:31:58;10.70;99.90
67901;DHT22;54700;51.796;10.956;2023-05-14T00:34:29;10.60;99.90
67901;DHT22;54700;51.796;10.956;2023-05-14T00:36:57;10.60;99.90
67901;DHT22;54700;51.796;10.956;2023-05-14T00:39:26;10.50;99.90
67901;DHT22;54700;51.796;10.956;2023-05-14T00:41:55;10.50;99.40
67901;DHT22;54700;51.796;10.956;2023-05-14T00:44:24;10.50;99.20
67901;DHT22;54700;51.796;10.956;2023-05-14T00:46:51;10.60;99.30
67901;DHT22;54700;51.796;10.956;2023-05-14T00:49:26;10.60;99.00
67901;DHT22;54700;51.796;10.956;2023-05-14T00:51:59;10.70;99.30
67901;DHT22;54700;51.796;10.956;2023-05-14T00:54:27;10.60;99.70
67901;DHT22;54700;51.796;10.956;2023-05-14T00:56:55;10.60;99.50
67901;DHT22;54700;51.796;10.956;2023-05-14T00:59:26;10.50;99.30
67901;DHT22;54700;51.796;10.956;2023-05-14T01:02:00;10.50;99.40
67901;DHT22;54700;51.796;10.956;2023-05-14T01:04:27;10.40;99.90
67901;DHT22;54700;51.796;10.956;2023-05-14T01:06:57;10.40;99.90
67901;DHT22;54700;51.796;10.956;2023-05-14T01:09:35;10.40;99.90
67901;DHT22;54700;51.796;10.956;2023-05-14T01:12:10;10.30;99.90
67901;DHT22;54700;51.796;10.956;2023-05-14T01:14:53;10.30;99.90
67901;DHT22;54700;51.796;10.956;2023-05-14T01:17:23;10.20;99.90
67901;DHT22;54700;51.796;10.956;2023-05-14T01:19:54;10.20;99.90
67901;DHT22;54700;51.796;10.956;2023-05-14T01:22:23;10.10;99.90
67901;DHT22;54700;51.796;10.956;2023-05-14T01:24:52;10.10;99.90
67901;DHT22;54700;51.796;10.956;2023-05-14T01:27:24;10.10;99.90
67901;DHT22;54700;51.796;10.956;2023-05-14T01:29:57;10.10;99.90
67901;DHT22;54700;51.796;10.956;2023-05-14T01:32:34;10.10;99.90
67901;DHT22;54700;51.796;10.956;2023-05-14T01:35:02;10.10;99.90
67901;DHT22;54700;51.796;10.956;2023-05-14T01:37:33;10.00;99.90
67901;DHT22;54700;51.796;10.956;2023-05-14T01:40:02;10.00;99.90
67901;DHT22;54700;51.796;10.956;2023-05-14T01:42:31;10.00;99.90
67901;DHT22;54700;51.796;10.956;2023-05-14T01:44:58;10.00;99.90
67901;DHT22;54700;51.796;10.956;2023-05-14T01:47:27;10.00;99.90
67901;DHT22;54700;51.796;10.956;2023-05-14T01:49:54;10.00;99.90
67901;DHT22;54700;51.796;10.956;2023-05-14T01:52:21;10.00;99.90
67901;DHT22;54700;51.796;10.956;2023-05-14T01:54:50;10.00;99.90
67901;DHT22;54700;51.796;10.956;2023-05-14T01:57:19;9.90;99.90
67901;DHT22;54700;51.796;10.956;2023-05-14T01:59:47;10.00;99.90
67901;DHT22;54700;51.796;10.956;2023-05-14T02:02:13;10.00;99.90
67901;DHT22;54700;51.796;10.956;2023-05-14T02:04:41;10.00;99.90
67901;DHT22;54700;51.796;10.956;2023-05-14T02:07:12;10.00;99.90
67901;DHT22;54700;51.796;10.956;2023-05-14T02:09:40;9.90;99.90
67901;DHT22;54700;51.796;10.956;2023-05-14T02:12:10;9.90;99.90
67901;DHT22;54700;51.796;10.956;2023-05-14T02:14:37;9.90;99.90
67901;DHT22;54700;51.796;10.956;2023-05-14T02:17:04;9.90;99.90
67901;DHT22;54700;51.796;10.956;2023-05-14T02:19:31;9.90;99.90
67901;DHT22;54700;51.796;10.956;2023-05-14T02:21:58;9.90;99.90
67901;DHT22;54700;51.796;10.956;2023-05-14T02:24:25;10.00;99.90
67901;DHT22;54700;51.796;10.956;2023-05-14T02:26:55;9.90;99.90
67901;DHT22;54700;51.796;10.956;2023-05-14T02:29:25;10.00;99.90
67901;DHT22;54700;51.796;10.956;2023-05-14T02:31:53;10.00;99.90
67901;DHT22;54700;51.796;10.956;2023-05-14T02:34:20;10.00;99.90
67901;DHT22;54700;51.796;10.956;2023-05-14T02:36:49;10.00;99.90
67901;DHT22;54700;51.796;10.956;2023-05-14T02:39:16;10.00;99.90
67901;DHT22;54700;51.796;10.956;2023-05-14T02:41:46;10.00;99.90
67901;DHT22;54700;51.796;10.956;2023-05-14T02:44:15;9.90;99.90
67901;DHT22;54700;51.796;10.956;2023-05-14T02:46:43;9.90;99.90
67901;DHT22;54700;51.796;10.956;2023-05-14T02:49:11;9.90;99.90
67901;DHT22;54700;51.796;10.956;2023-05-14T02:51:38;10.00;99.90
67901;DHT22;54700;51.796;10.956;2023-05-14T02:54:08;9.90;99.90
67901;DHT22;54700;51.796;10.956;2023-05-14T02:56:36;9.90;99.90
67901;DHT22;54700;51.796;10.956;2023-05-14T02:59:03;9.90;99.90
67901;DHT22;54700;51.796;10.956;2023-05-14T03:01:35;9.90;99.90
67901;DHT22;54700;51.796;10.956;2023-05-14T03:04:03;9.90;99.90
67901;DHT22;54700;51.796;10.956;2023-05-14T03:06:32;9.80;99.90
67901;DHT22;54700;51.796;10.956;2023-05-14T03:09:00;9.90;99.90
67901;DHT22;54700;51.796;10.956;2023-05-14T03:11:27;9.90;99.90
67901;DHT22;54700;51.796;10.956;2023-05-14T03:13:54;9.90;99.90
67901;DHT22;54700;51.796;10.956;2023-05-14T03:16:21;9.90;99.90
67901;DHT22;54700;51.796;10.956;2023-05-14T03:18:48;9.90;99.90
67901;DHT22;54700;51.796;10.956;2023-05-14T03:21:17;9.90;99.90
67901;DHT22;54700;51.796;10.956;2023-05-14T03:23:45;10.00;99.90
67901;DHT22;54700;51.796;10.956;2023-05-14T03:26:12;10.00;99.90
67901;DHT22;54700;51.796;10.956;2023-05-14T03:28:39;10.00;99.90
67901;DHT22;54700;51.796;10.956;2023-05-14T03:31:06;10.10;99.90
67901;DHT22;54700;51.796;10.956;2023-05-14T03:33:34;10.10;99.90
67901;DHT22;54700;51.796;10.956;2023-05-14T03:36:04;10.10;99.90
67901;DHT22;54700;51.796;10.956;2023-05-14T03:38:33;10.10;99.90
67901;DHT22;54700;51.796;10.956;2023-05-14T03:41:01;10.10;99.90
67901;DHT22;54700;51.796;10.956;2023-05-14T03:43:31;10.10;99.90
67901;DHT22;54700;51.796;10.956;2023-05-14T03:45:58;10.10;99.90
67901;DHT22;54700;51.796;10.956;2023-05-14T03:48:29;10.10;99.90
67901;DHT22;54700;51.796;10.956;2023-05-14T03:50:58;10.10;99.90
67901;DHT22;54700;51.796;10.956;2023-05-14T03:53:26;10.10;99.90
67901;DHT22;54700;51.796;10.956;2023-05-14T03:55:55;10.10;99.90
67901;DHT22;54700;51.796;10.956;2023-05-14T03:58:23;10.10;99.90
67901;DHT22;54700;51.796;10.956;2023-05-14T04:00:53;10.20;99.90
67901;DHT22;54700;51.796;10.956;2023-05-14T04:03:24;10.30;99.90
67901;DHT22;54700;51.796;10.956;2023-05-14T04:05:52;10.30;99.90
67901;DHT22;54700;51.796;10.956;2023-05-14T04:08:20;10.40;99.90
67901;DHT22;54700;51.796;10.956;2023-05-14T04:10:50;10.40;99.90
67901;DHT22;54700;51.796;10.956;2023-05-14T04:13:21;10.40;99.90
67901;DHT22;54700;51.796;10.956;2023-05-14T04:16:03;10.50;99.90
67901;DHT22;54700;51.796;10.956;2023-05-14T04:18:32;10.50;99.90
67901;DHT22;54700;51.796;10.956;2023-05-14T04:21:01;10.50;99.90
67901;DHT22;54700;51.796;10.956;2023-05-14T04:23:48;10.60;99.90
67901;DHT22;54700;51.796;10.956;2023-05-14T04:26:24;10.70;99.90
67901;DHT22;54700;51.796;10.956;2023-05-14T04:28:56;10.70;99.90
67901;DHT22;54700;51.796;10.956;2023-05-14T04:31:27;10.80;99.90
67901;DHT22;54700;51.796;10.956;2023-05-14T04:33:59;10.80;99.90
67901;DHT22;54700;51.796;10.956;2023-05-14T04:36:28;10.90;99.90
67901;DHT22;54700;51.796;10.956;2023-05-14T04:39:04;10.90;99.90
67901;DHT22;54700;51.796;10.956;2023-05-14T04:41:33;10.90;99.90
67901;DHT22;54700;51.796;10.956;2023-05-14T04:44:08;10.90;99.90
67901;DHT22;54700;51.796;10.956;2023-05-14T04:46:43;10.90;99.90
67901;DHT22;54700;51.796;10.956;2023-05-14T04:49:13;10.90;99.90
67901;DHT22;54700;51.796;10.956;2023-05-14T04:51:40;10.90;99.90
67901;DHT22;54700;51.796;10.956;2023-05-14T04:54:07;10.90;99.90
67901;DHT22;54700;51.796;10.956;2023-05-14T04:56:37;10.90;99.90
67901;DHT22;54700;51.796;10.956;2023-05-14T04:59:08;10.90;99.90
67901;DHT22;54700;51.796;10.956;2023-05-14T05:01:44;11.00;99.90
67901;DHT22;54700;51.796;10.956;2023-05-14T05:04:11;11.10;99.90
67901;DHT22;54700;51.796;10.956;2023-05-14T05:06:38;11.10;99.90
67901;DHT22;54700;51.796;10.956;2023-05-14T05:09:20;11.10;99.90
67901;DHT22;54700;51.796;10.956;2023-05-14T05:11:47;11.30;99.90
67901;DHT22;54700;51.796;10.956;2023-05-14T05:14:16;11.30;99.90
67901;DHT22;54700;51.796;10.956;2023-05-14T05:16:43;11.40;99.90
67901;DHT22;54700;51.796;10.956;2023-05-14T05:19:11;11.50;99.90
67901;DHT22;54700;51.796;10.956;2023-05-14T05:21:47;11.50;99.90
67901;DHT22;54700;51.796;10.956;2023-05-14T05:24:17;11.50;99.90
67901;DHT22;54700;51.796;10.956;2023-05-14T05:26:46;11.60;99.90
67901;DHT22;54700;51.796;10.956;2023-05-14T05:29:17;11.60;99.90
67901;DHT22;54700;51.796;10.956;2023-05-14T05:31:47;11.60;99.90
67901;DHT22;54700;51.796;10.956;2023-05-14T05:34:15;11.70;99.90
67901;DHT22;54700;51.796;10.956;2023-05-14T05:36:42;11.80;99.90
67901;DHT22;54700;51.796;10.956;2023-05-14T05:39:14;11.80;99.70
67901;DHT22;54700;51.796;10.956;2023-05-14T05:41:41;11.90;99.40
67901;DHT22;54700;51.796;10.956;2023-05-14T05:44:10;12.00;98.90
67901;DHT22;54700;51.796;10.956;2023-05-14T05:46:41;12.10;98.10
67901;DHT22;54700;51.796;10.956;2023-05-14T05:49:15;12.30;97.30
67901;DHT22;54700;51.796;10.956;2023-05-14T05:51:42;12.40;96.70
67901;DHT22;54700;51.796;10.956;2023-05-14T05:54:09;12.50;96.00
67901;DHT22;54700;51.796;10.956;2023-05-14T05:56:40;12.60;95.20
67901;DHT22;54700;51.796;10.956;2023-05-14T05:59:07;12.70;94.90
67901;DHT22;54700;51.796;10.956;2023-05-14T06:01:36;12.70;94.50
67901;DHT22;54700;51.796;10.956;2023-05-14T06:04:18;12.70;94.20
67901;DHT22;54700;51.796;10.956;2023-05-14T06:06:48;12.70;93.70
67901;DHT22;54700;51.796;10.956;2023-05-14T06:09:15;12.70;94.70
67901;DHT22;54700;51.796;10.956;2023-05-14T06:11:42;12.70;93.60
67901;DHT22;54700;51.796;10.956;2023-05-14T06:14:11;12.80;93.60
67901;DHT22;54700;51.796;10.956;2023-05-14T06:16:43;12.90;93.30
67901;DHT22;54700;51.796;10.956;2023-05-14T06:19:11;12.80;92.90
67901;DHT22;54700;51.796;10.956;2023-05-14T06:21:42;12.90;92.70
67901;DHT22;54700;51.796;10.956;2023-05-14T06:24:09;13.00;92.70
67901;DHT22;54700;51.796;10.956;2023-05-14T06:26:37;13.20;92.10
67901;DHT22;54700;51.796;10.956;2023-05-14T06:29:04;13.30;91.20
67901;DHT22;54700;51.796;10.956;2023-05-14T06:31:36;13.50;91.30
67901;DHT22;54700;51.796;10.956;2023-05-14T06:34:15;13.60;90.30
67901;DHT22;54700;51.796;10.956;2023-05-14T06:36:46;13.70;89.80
67901;DHT22;54700;51.796;10.956;2023-05-14T06:39:16;13.80;89.20
67901;DHT22;54700;51.796;10.956;2023-05-14T06:41:45;13.90;87.60
67901;DHT22;54700;51.796;10.956;2023-05-14T06:44:12;14.00;86.50
67901;DHT22;54700;51.796;10.956;2023-05-14T06:46:48;14.20;86.10
67901;DHT22;54700;51.796;10.956;2023-05-14T06:49:15;14.30;85.40
67901;DHT22;54700;51.796;10.956;2023-05-14T06:51:44;14.50;80.20
67901;DHT22;54700;51.796;10.956;2023-05-14T06:54:18;14.60;79.40
67901;DHT22;54700;51.796;10.956;2023-05-14T06:56:46;14.90;74.80
67901;DHT22;54700;51.796;10.956;2023-05-14T06:59:13;15.10;74.30
67901;DHT22;54700;51.796;10.956;2023-05-14T07:01:40;15.20;72.90
67901;DHT22;54700;51.796;10.956;2023-05-14T07:04:09;15.30;72.60
67901;DHT22;54700;51.796;10.956;2023-05-14T07:06:36;15.40;71.50
67901;DHT22;54700;51.796;10.956;2023-05-14T07:09:05;15.50;70.00
67901;DHT22;54700;51.796;10.956;2023-05-14T07:11:34;15.50;68.30
67901;DHT22;54700;51.796;10.956;2023-05-14T07:14:01;15.50;68.10
67901;DHT22;54700;51.796;10.956;2023-05-14T07:16:28;15.60;67.70
67901;DHT22;54700;51.796;10.956;2023-05-14T07:18:55;15.80;67.00
67901;DHT22;54700;51.796;10.956;2023-05-14T07:21:22;15.90;66.80
67901;DHT22;54700;51.796;10.956;2023-05-14T07:23:50;16.00;66.20
67901;DHT22;54700;51.796;10.956;2023-05-14T07:26:18;16.00;65.40
67901;DHT22;54700;51.796;10.956;2023-05-14T07:28:45;16.10;65.50
67901;DHT22;54700;51.796;10.956;2023-05-14T07:31:12;16.10;63.80
67901;DHT22;54700;51.796;10.956;2023-05-14T07:33:39;16.10;64.20
67901;DHT22;54700;51.796;10.956;2023-05-14T07:36:06;16.00;64.00
67901;DHT22;54700;51.796;10.956;2023-05-14T07:38:33;16.00;64.00
67901;DHT22;54700;51.796;10.956;2023-05-14T07:41:01;15.90;63.90
67901;DHT22;54700;51.796;10.956;2023-05-14T07:43:29;15.90;63.70
67901;DHT22;54700;51.796;10.956;2023-05-14T07:45:56;15.90;63.90
67901;DHT22;54700;51.796;10.956;2023-05-14T07:48:23;16.00;63.50
67901;DHT22;54700;51.796;10.956;2023-05-14T07:50:50;15.90;62.90
67901;DHT22;54700;51.796;10.956;2023-05-14T07:53:24;15.90;62.30
67901;DHT22;54700;51.796;10.956;2023-05-14T07:55:51;15.90;61.00
67901;DHT22;54700;51.796;10.956;2023-05-14T07:58:18;15.90;61.20
67901;DHT22;54700;51.796;10.956;2023-05-14T08:00:47;15.90;61.60
67901;DHT22;54700;51.796;10.956;2023-05-14T08:03:15;16.00;61.00
67901;DHT22;54700;51.796;10.956;2023-05-14T08:05:44;16.10;62.00
67901;DHT22;54700;51.796;10.956;2023-05-14T08:08:16;16.20;61.30
67901;DHT22;54700;51.796;10.956;2023-05-14T08:10:49;16.30;60.50
67901;DHT22;54700;51.796;10.956;2023-05-14T08:13:20;16.40;59.30
67901;DHT22;54700;51.796;10.956;2023-05-14T08:15:49;16.60;58.70
67901;DHT22;54700;51.796;10.956;2023-05-14T08:18:16;16.60;57.20
67901;DHT22;54700;51.796;10.956;2023-05-14T08:20:43;16.70;56.80
67901;DHT22;54700;51.796;10.956;2023-05-14T08:23:13;16.90;57.30
67901;DHT22;54700;51.796;10.956;2023-05-14T08:25:42;17.00;57.10
67901;DHT22;54700;51.796;10.956;2023-05-14T08:28:18;16.90;56.50
67901;DHT22;54700;51.796;10.956;2023-05-14T08:30:45;16.90;57.30
67901;DHT22;54700;51.796;10.956;2023-05-14T08:33:15;16.90;57.30
67901;DHT22;54700;51.796;10.956;2023-05-14T08:35:45;17.00;58.00
67901;DHT22;54700;51.796;10.956;2023-05-14T08:38:19;17.00;57.40
67901;DHT22;54700;51.796;10.956;2023-05-14T08:40:52;17.00;57.30
67901;DHT22;54700;51.796;10.956;2023-05-14T08:43:25;17.10;56.90
67901;DHT22;54700;51.796;10.956;2023-05-14T08:46:00;17.20;57.30
67901;DHT22;54700;51.796;10.956;2023-05-14T08:48:34;17.30;57.70
67901;DHT22;54700;51.796;10.956;2023-05-14T08:51:08;17.40;58.60
67901;DHT22;54700;51.796;10.956;2023-05-14T08:53:43;17.50;57.70
67901;DHT22;54700;51.796;10.956;2023-05-14T08:56:15;17.50;55.70
67901;DHT22;54700;51.796;10.956;2023-05-14T08:58:43;17.40;53.60
67901;DHT22;54700;51.796;10.956;2023-05-14T09:01:11;17.40;54.50
67901;DHT22;54700;51.796;10.956;2023-05-14T09:03:39;17.40;55.60
67901;DHT22;54700;51.796;10.956;2023-05-14T09:06:15;17.40;56.20
67901;DHT22;54700;51.796;10.956;2023-05-14T09:08:42;17.30;57.10
67901;DHT22;54700;51.796;10.956;2023-05-14T09:11:10;17.30;58.10
67901;DHT22;54700;51.796;10.956;2023-05-14T09:13:43;17.40;58.50
67901;DHT22;54700;51.796;10.956;2023-05-14T09:16:16;17.40;58.30
67901;DHT22;54700;51.796;10.956;2023-05-14T09:18:46;17.30;58.20
67901;DHT22;54700;51.796;10.956;2023-05-14T09:21:17;17.30;58.80
67901;DHT22;54700;51.796;10.956;2023-05-14T09:23:45;17.30;58.30
67901;DHT22;54700;51.796;10.956;2023-05-14T09:26:23;17.20;55.90
67901;DHT22;54700;51.796;10.956;2023-05-14T09:28:54;17.20;55.60
67901;DHT22;54700;51.796;10.956;2023-05-14T09:31:24;17.30;56.30
67901;DHT22;54700;51.796;10.956;2023-05-14T09:33:54;17.40;55.50
67901;DHT22;54700;51.796;10.956;2023-05-14T09:36:24;17.50;57.30
67901;DHT22;54700;51.796;10.956;2023-05-14T09:38:57;17.50;54.60
67901;DHT22;54700;51.796;10.956;2023-05-14T09:41:24;17.50;54.60
67901;DHT22;54700;51.796;10.956;2023-05-14T09:43:53;17.60;54.60
67901;DHT22;54700;51.796;10.956;2023-05-14T09:46:24;17.70;53.60
67901;DHT22;54700;51.796;10.956;2023-05-14T09:48:55;17.80;53.70
67901;DHT22;54700;51.796;10.956;2023-05-14T09:51:23;17.80;54.50
67901;DHT22;54700;51.796;10.956;2023-05-14T09:53:51;17.90;53.60
67901;DHT22;54700;51.796;10.956;2023-05-14T09:56:20;17.90;53.40
67901;DHT22;54700;51.796;10.956;2023-05-14T09:58:50;17.80;53.20
67901;DHT22;54700;51.796;10.956;2023-05-14T10:01:19;17.90;53.80
67901;DHT22;54700;51.796;10.956;2023-05-14T10:03:48;17.90;54.00
67901;DHT22;54700;51.796;10.956;2023-05-14T10:06:17;18.00;53.70
67901;DHT22;54700;51.796;10.956;2023-05-14T10:08:48;17.90;53.60
67901;DHT22;54700;51.796;10.956;2023-05-14T10:11:21;17.90;53.90
67901;DHT22;54700;51.796;10.956;2023-05-14T10:13:54;17.80;54.90
67901;DHT22;54700;51.796;10.956;2023-05-14T10:16:32;17.70;55.40
67901;DHT22;54700;51.796;10.956;2023-05-14T10:19:04;17.70;55.00
67901;DHT22;54700;51.796;10.956;2023-05-14T10:21:36;17.80;55.80
67901;DHT22;54700;51.796;10.956;2023-05-14T10:24:04;17.80;55.10
67901;DHT22;54700;51.796;10.956;2023-05-14T10:26:35;17.80;54.80
67901;DHT22;54700;51.796;10.956;2023-05-14T10:29:05;17.90;55.20
67901;DHT22;54700;51.796;10.956;2023-05-14T10:31:45;17.80;53.80
67901;DHT22;54700;51.796;10.956;2023-05-14T10:34:31;17.80;54.10
67901;DHT22;54700;51.796;10.956;2023-05-14T10:37:03;17.80;53.60
67901;DHT22;54700;51.796;10.956;2023-05-14T10:39:39;17.80;54.40
67901;DHT22;54700;51.796;10.956;2023-05-14T10:42:10;17.90;54.80
67901;DHT22;54700;51.796;10.956;2023-05-14T10:44:40;18.00;52.30
67901;DHT22;54700;51.796;10.956;2023-05-14T10:47:17;18.10;51.90
67901;DHT22;54700;51.796;10.956;2023-05-14T10:49:48;18.10;51.10
67901;DHT22;54700;51.796;10.956;2023-05-14T10:52:23;18.30;53.60
67901;DHT22;54700;51.796;10.956;2023-05-14T10:54:52;18.30;53.00
67901;DHT22;54700;51.796;10.956;2023-05-14T10:57:21;18.40;49.50
67901;DHT22;54700;51.796;10.956;2023-05-14T10:59:52;18.50;48.90
67901;DHT22;54700;51.796;10.956;2023-05-14T11:02:24;18.70;49.20
67901;DHT22;54700;51.796;10.956;2023-05-14T11:04:59;18.80;48.10
67901;DHT22;54700;51.796;10.956;2023-05-14T11:07:38;19.00;47.20
67901;DHT22;54700;51.796;10.956;2023-05-14T11:10:07;18.90;47.10
67901;DHT22;54700;51.796;10.956;2023-05-14T11:12:36;18.90;49.00
67901;DHT22;54700;51.796;10.956;2023-05-14T11:15:11;18.90;49.80
67901;DHT22;54700;51.796;10.956;2023-05-14T11:17:40;18.90;49.70
67901;DHT22;54700;51.796;10.956;2023-05-14T11:20:14;18.80;48.40
67901;DHT22;54700;51.796;10.956;2023-05-14T11:22:48;18.70;47.60
67901;DHT22;54700;51.796;10.956;2023-05-14T11:25:19;18.60;48.10
67901;DHT22;54700;51.796;10.956;2023-05-14T11:27:53;18.50;48.60
67901;DHT22;54700;51.796;10.956;2023-05-14T11:30:23;18.60;48.40
67901;DHT22;54700;51.796;10.956;2023-05-14T11:32:50;18.80;47.10
67901;DHT22;54700;51.796;10.956;2023-05-14T11:35:22;18.80;47.90
67901;DHT22;54700;51.796;10.956;2023-05-14T11:37:51;18.80;46.90
67901;DHT22;54700;51.796;10.956;2023-05-14T11:40:19;18.80;46.40
67901;DHT22;54700;51.796;10.956;2023-05-14T11:42:48;18.80;46.00
67901;DHT22;54700;51.796;10.956;2023-05-14T11:45:28;18.70;45.80
67901;DHT22;54700;51.796;10.956;2023-05-14T11:47:57;18.80;44.50
67901;DHT22;54700;51.796;10.956;2023-05-14T11:50:24;18.70;45.40
67901;DHT22;54700;51.796;10.956;2023-05-14T11:53:06;18.70;46.00
67901;DHT22;54700;51.796;10.956;2023-05-14T11:55:35;18.60;47.40
67901;DHT22;54700;51.796;10.956;2023-05-14T11:58:02;18.60;47.00
67901;DHT22;54700;51.796;10.956;2023-05-14T12:00:32;18.60;46.90
67901;DHT22;54700;51.796;10.956;2023-05-14T12:02:59;18.60;47.50
67901;DHT22;54700;51.796;10.956;2023-05-14T12:05:26;18.70;47.80
67901;DHT22;54700;51.796;10.956;2023-05-14T12:07:55;18.70;46.70
67901;DHT22;54700;51.796;10.956;2023-05-14T12:10:28;18.70;47.00
67901;DHT22;54700;51.796;10.956;2023-05-14T12:12:55;18.70;45.80
67901;DHT22;54700;51.796;10.956;2023-05-14T12:15:22;18.60;45.40
67901;DHT22;54700;51.796;10.956;2023-05-14T12:17:51;18.60;44.90
67901;DHT22;54700;51.796;10.956;2023-05-14T12:20:17;18.60;43.00
67901;DHT22;54700;51.796;10.956;2023-05-14T12:22:46;18.70;44.40
67901;DHT22;54700;51.796;10.956;2023-05-14T12:25:13;18.80;42.10
67901;DHT22;54700;51.796;10.956;2023-05-14T12:27:42;18.90;42.70
67901;DHT22;54700;51.796;10.956;2023-05-14T12:30:10;19.00;42.30
67901;DHT22;54700;51.796;10.956;2023-05-14T12:32:39;19.00;43.50
67901;DHT22;54700;51.796;10.956;2023-05-14T12:35:06;19.10;42.80
67901;DHT22;54700;51.796;10.956;2023-05-14T12:37:33;19.20;42.70
67901;DHT22;54700;51.796;10.956;2023-05-14T12:40:04;19.20;43.30
67901;DHT22;54700;51.796;10.956;2023-05-14T12:42:35;19.40;44.70
67901;DHT22;54700;51.796;10.956;2023-05-14T12:45:07;19.60;43.40
67901;DHT22;54700;51.796;10.956;2023-05-14T12:47:42;19.60;42.60
67901;DHT22;54700;51.796;10.956;2023-05-14T12:50:10;19.70;42.30
67901;DHT22;54700;51.796;10.956;2023-05-14T12:52:39;19.70;43.00
67901;DHT22;54700;51.796;10.956;2023-05-14T12:55:07;19.80;43.10
67901;DHT22;54700;51.796;10.956;2023-05-14T12:57:36;20.00;42.30
67901;DHT22;54700;51.796;10.956;2023-05-14T13:00:04;20.20;42.30
67901;DHT22;54700;51.796;10.956;2023-05-14T13:02:34;20.20;41.50
67901;DHT22;54700;51.796;10.956;2023-05-14T13:05:01;20.30;41.60
67901;DHT22;54700;51.796;10.956;2023-05-14T13:07:28;20.20;42.00
67901;DHT22;54700;51.796;10.956;2023-05-14T13:09:56;20.10;41.80
67901;DHT22;54700;51.796;10.956;2023-05-14T13:12:23;20.00;43.30
67901;DHT22;54700;51.796;10.956;2023-05-14T13:14:50;19.80;42.40
67901;DHT22;54700;51.796;10.956;2023-05-14T13:17:17;19.60;42.70
67901;DHT22;54700;51.796;10.956;2023-05-14T13:19:46;19.40;43.40
67901;DHT22;54700;51.796;10.956;2023-05-14T13:22:15;19.30;43.00
67901;DHT22;54700;51.796;10.956;2023-05-14T13:24:43;19.20;42.60
67901;DHT22;54700;51.796;10.956;2023-05-14T13:27:10;19.20;42.00
67901;DHT22;54700;51.796;10.956;2023-05-14T13:29:37;19.20;42.10
67901;DHT22;54700;51.796;10.956;2023-05-14T13:32:04;19.10;42.50
67901;DHT22;54700;51.796;10.956;2023-05-14T13:34:32;19.10;42.40
67901;DHT22;54700;51.796;10.956;2023-05-14T13:37:00;19.10;42.30
67901;DHT22;54700;51.796;10.956;2023-05-14T13:39:29;19.00;42.90
67901;DHT22;54700;51.796;10.956;2023-05-14T13:41:57;19.10;43.10
67901;DHT22;54700;51.796;10.956;2023-05-14T13:44:24;19.00;42.70
67901;DHT22;54700;51.796;10.956;2023-05-14T13:46:51;19.00;43.50
67901;DHT22;54700;51.796;10.956;2023-05-14T13:49:18;19.00;44.40
67901;DHT22;54700;51.796;10.956;2023-05-14T13:51:46;18.90;44.50
67901;DHT22;54700;51.796;10.956;2023-05-14T13:54:15;18.90;44.20
67901;DHT22;54700;51.796;10.956;2023-05-14T13:56:42;18.80;44.20
67901;DHT22;54700;51.796;10.956;2023-05-14T13:59:09;18.70;44.20
67901;DHT22;54700;51.796;10.956;2023-05-14T14:01:36;18.60;45.10
67901;DHT22;54700;51.796;10.956;2023-05-14T14:04:03;18.60;44.60
67901;DHT22;54700;51.796;10.956;2023-05-14T14:06:30;18.40;45.00
67901;DHT22;54700;51.796;10.956;2023-05-14T14:08:57;18.40;45.70
67901;DHT22;54700;51.796;10.956;2023-05-14T14:11:26;18.30;45.70
67901;DHT22;54700;51.796;10.956;2023-05-14T14:13:53;18.30;44.80
67901;DHT22;54700;51.796;10.956;2023-05-14T14:16:23;18.30;43.00
67901;DHT22;54700;51.796;10.956;2023-05-14T14:18:50;18.30;42.90
67901;DHT22;54700;51.796;10.956;2023-05-14T14:21:17;18.30;42.10
67901;DHT22;54700;51.796;10.956;2023-05-14T14:23:45;18.20;42.20
67901;DHT22;54700;51.796;10.956;2023-05-14T14:26:15;18.30;43.40
67901;DHT22;54700;51.796;10.956;2023-05-14T14:28:45;18.30;43.70
67901;DHT22;54700;51.796;10.956;2023-05-14T14:31:12;18.30;43.30
67901;DHT22;54700;51.796;10.956;2023-05-14T14:33:42;18.30;43.80
67901;DHT22;54700;51.796;10.956;2023-05-14T14:36:12;18.40;44.30
67901;DHT22;54700;51.796;10.956;2023-05-14T14:38:39;18.40;43.80
67901;DHT22;54700;51.796;10.956;2023-05-14T14:41:06;18.50;43.80
67901;DHT22;54700;51.796;10.956;2023-05-14T14:43:35;18.60;43.40
67901;DHT22;54700;51.796;10.956;2023-05-14T14:46:06;18.70;42.60
67901;DHT22;54700;51.796;10.956;2023-05-14T14:48:34;18.80;42.20
67901;DHT22;54700;51.796;10.956;2023-05-14T14:51:03;18.90;41.80
67901;DHT22;54700;51.796;10.956;2023-05-14T14:53:31;18.90;41.40
67901;DHT22;54700;51.796;10.956;2023-05-14T14:55:58;18.90;41.40
67901;DHT22;54700;51.796;10.956;2023-05-14T14:58:26;19.00;42.20
67901;DHT22;54700;51.796;10.956;2023-05-14T15:00:54;19.00;41.70
67901;DHT22;54700;51.796;10.956;2023-05-14T15:03:23;18.90;41.50
67901;DHT22;54700;51.796;10.956;2023-05-14T15:05:50;19.00;41.80
67901;DHT22;54700;51.796;10.956;2023-05-14T15:08:18;19.00;42.00
67901;DHT22;54700;51.796;10.956;2023-05-14T15:10:46;19.00;41.30
67901;DHT22;54700;51.796;10.956;2023-05-14T15:13:13;18.90;40.60
67901;DHT22;54700;51.796;10.956;2023-05-14T15:15:40;18.90;41.00
67901;DHT22;54700;51.796;10.956;2023-05-14T15:18:07;18.90;40.20
67901;DHT22;54700;51.796;10.956;2023-05-14T15:20:35;18.90;40.20
67901;DHT22;54700;51.796;10.956;2023-05-14T15:23:03;18.90;40.70
67901;DHT22;54700;51.796;10.956;2023-05-14T15:25:30;18.90;40.20
67901;DHT22;54700;51.796;10.956;2023-05-14T15:27:58;18.90;40.60
67901;DHT22;54700;51.796;10.956;2023-05-14T15:30:25;18.90;40.90
67901;DHT22;54700;51.796;10.956;2023-05-14T15:32:52;18.90;40.60